Messwerte Houston / Ellington

Temperatur

Temperatur
°C
1593741600 21.00 21.00 29
1593745200 22.00 22.00 29
1593748800 23.00 23.00 28
1593752400 0.00 0.00 27
1593756000 1.00 1.00 27
1593759600 2.00 2.00 26
1593763200 3.00 3.00 26
1593766800 4.00 4.00 26
1593770400 5.00 5.00 26
1593774000 6.00 6.00 26
1593777600 7.00 7.00 26
1593781200 8.00 8.00 28
1593784800 9.00 9.00
1593788400 10.00 10.00 30
1593792000 11.00 11.00 31
1593795600 12.00 12.00 31
1593799200 13.00 13.00 32
1593802800 14.00 14.00 33
1593806400 15.00 15.00
1593810000 16.00 16.00 34
1593813600 17.00 17.00 35
1593817200 18.00 18.00 35
1593820800 19.00 19.00 34
1593824400 20.00 20.00 29

Aktuellste Messwerte

Wettercharakter
Wetter: wechselnd bewölkt
Temperatur
25 °C
Feuchtigkeit
85 %
Wind
10 km/hWindrichtung: Südost
Luftdruck
1014 hPa
Messzeit: 3. Juli 2020, 22.00Datenquelle: METAR

Weitere Messstationen in der Nähe

Messstation Temperatur Entfernung
Houston 28 °C 11 km
Houston Hobby 27 °C 12 km
Houston 26 °C 45 km
Houston 28 °C 47 km
Galveston 27 °C 49 km
Angleton / Lake Jackson 28 °C 61 km
Houston 26 °C 64 km

Wind

Windrichtung Böen Mittelwind
° km/h km/h
1593741600 21.00 20.00 - 21.00 170° 20
1593745200 22.00 21.00 - 22.00 170° 20
1593748800 23.00 22.00 - 23.00 190° 15
1593752400 0.00 23.00 - 0.00 180° 10
1593756000 1.00 0.00 - 1.00 180° 10
1593759600 2.00 1.00 - 2.00 190° 10
1593763200 3.00 2.00 - 3.00 200° 10
1593766800 4.00 3.00 - 4.00 180° 5
1593770400 5.00 4.00 - 5.00 230° 10
1593774000 6.00 5.00 - 6.00 230° 10
1593777600 7.00 6.00 - 7.00 230° 5
1593781200 8.00 7.00 - 8.00 300° 5
1593784800 9.00 8.00 - 9.00
1593788400 10.00 9.00 - 10.00 240° 20
1593792000 11.00 10.00 - 11.00 260° 15
1593795600 12.00 11.00 - 12.00 260° 15
1593799200 13.00 12.00 - 13.00 300° 15
1593802800 14.00 13.00 - 14.00 230° 10
1593806400 15.00 14.00 - 15.00
1593810000 16.00 15.00 - 16.00 260° 15
1593813600 17.00 16.00 - 17.00 240° 5
1593817200 18.00 17.00 - 18.00 260° 10
1593820800 19.00 18.00 - 19.00 0
1593824400 20.00 19.00 - 20.00 40° 20

Ihre Wetterstation

Fehlt Ihre Wetterstation auf unserem Portal?

Schreiben Sie an network@meteonews.ch

Klima

Wann ist es am wärmsten? Wann regnet es am wenigsten? Unsere Klimadaten geben Auskunft.